Time;durP1;ratioP1;P1;durP2;ratioP2;P2;SDS_P1;SDS_P2;PMS_P1;PMS_P2;Temp;Humidity;BMP_temperature;BMP_pressure;BME280_temperature;BME280_humidity;BME280_pressure;Samples;Min_cycle;Max_cycle;Signal;HPM_P1;HPM_P2
2023/06/17 00:01:41;;;;;;;;;;;14.50;99.90;;;;;;5098243;27;20447;-82
2023/06/17 00:04:06;;;;;;;;;;;14.50;99.90;;;;;;5098121;27;19928;-82
2023/06/17 00:06:32;;;;;;;;;;;14.40;99.90;;;;;;5103560;27;19949;-82
2023/06/17 00:08:59;;;;;;;;;;;14.30;99.90;;;;;;5102393;27;19932;-82
2023/06/17 00:11:28;;;;;;;;;;;14.20;99.90;;;;;;5101231;27;19941;-82
2023/06/17 00:13:54;;;;;;;;;;;14.20;99.90;;;;;;5118970;27;20313;-81
2023/06/17 00:16:20;;;;;;;;;;;14.10;99.90;;;;;;5117293;27;19933;-82
2023/06/17 00:18:47;;;;;;;;;;;14.00;99.90;;;;;;5106147;27;19935;-82
2023/06/17 00:21:13;;;;;;;;;;;13.90;99.90;;;;;;5093599;28;19927;-82
2023/06/17 00:23:39;;;;;;;;;;;13.90;99.90;;;;;;5110332;27;19924;-82
2023/06/17 00:26:05;;;;;;;;;;;14.00;99.90;;;;;;5113260;27;20407;-82
2023/06/17 00:28:31;;;;;;;;;;;13.90;99.90;;;;;;5095444;28;19980;-82
2023/06/17 00:30:56;;;;;;;;;;;13.90;99.90;;;;;;5117110;27;19934;-82
2023/06/17 00:33:22;;;;;;;;;;;13.90;99.90;;;;;;5103320;28;19931;-82
2023/06/17 00:35:47;;;;;;;;;;;13.90;99.90;;;;;;5114002;28;19928;-82
2023/06/17 00:38:13;;;;;;;;;;;13.90;99.90;;;;;;5117477;28;20313;-82
2023/06/17 00:40:38;;;;;;;;;;;13.90;99.90;;;;;;5095231;28;19931;-82
2023/06/17 00:43:04;;;;;;;;;;;13.90;99.90;;;;;;5117007;28;20143;-81
2023/06/17 00:45:30;;;;;;;;;;;13.90;99.90;;;;;;5111298;28;19938;-82
2023/06/17 00:47:55;;;;;;;;;;;13.80;99.90;;;;;;5114107;28;19936;-81
2023/06/17 00:50:21;;;;;;;;;;;13.70;99.90;;;;;;5110845;28;20063;-81
2023/06/17 00:52:50;;;;;;;;;;;13.70;99.90;;;;;;5119212;28;19927;-82
2023/06/17 00:55:15;;;;;;;;;;;13.70;99.90;;;;;;5112094;28;19927;-82
2023/06/17 00:57:41;;;;;;;;;;;13.70;99.90;;;;;;5112867;28;20611;-81
2023/06/17 01:00:10;;;;;;;;;;;13.50;99.90;;;;;;5115805;28;19980;-81
2023/06/17 01:02:40;;;;;;;;;;;13.30;99.90;;;;;;5091129;28;19934;-81
2023/06/17 01:05:12;;;;;;;;;;;13.20;99.90;;;;;;5087699;28;20502;-82
2023/06/17 01:07:43;;;;;;;;;;;13.30;99.90;;;;;;5100522;28;19958;-81
2023/06/17 01:10:27;;;;;;;;;;;13.30;99.90;;;;;;5117561;27;19927;-82
2023/06/17 01:12:54;;;;;;;;;;;13.30;99.90;;;;;;5099353;27;19935;-82
2023/06/17 01:15:20;;;;;;;;;;;13.30;99.90;;;;;;5103436;27;19981;-82
2023/06/17 01:17:46;;;;;;;;;;;13.30;99.90;;;;;;5102876;27;19927;-82
2023/06/17 01:20:13;;;;;;;;;;;13.40;99.90;;;;;;5119246;27;19928;-82
2023/06/17 01:22:39;;;;;;;;;;;13.30;99.90;;;;;;5099179;27;19932;-82
2023/06/17 01:25:06;;;;;;;;;;;13.10;99.90;;;;;;5103265;27;20026;-82
2023/06/17 01:27:33;;;;;;;;;;;12.70;99.90;;;;;;5113364;27;20014;-82
2023/06/17 01:29:59;;;;;;;;;;;12.90;99.90;;;;;;5098486;27;19927;-81
2023/06/17 01:32:25;;;;;;;;;;;12.90;99.90;;;;;;5112766;27;19940;-81
2023/06/17 01:34:50;;;;;;;;;;;12.90;99.90;;;;;;5118997;27;20014;-82
2023/06/17 01:37:23;;;;;;;;;;;12.90;99.90;;;;;;5115129;27;19932;-81
2023/06/17 01:39:50;;;;;;;;;;;12.90;99.90;;;;;;5122815;27;20289;-82
2023/06/17 01:42:20;;;;;;;;;;;12.90;99.90;;;;;;5103370;27;20288;-81
2023/06/17 01:44:46;;;;;;;;;;;12.80;99.90;;;;;;5116435;27;20706;-82
2023/06/17 01:47:12;;;;;;;;;;;12.80;99.90;;;;;;5119502;27;19927;-82
2023/06/17 01:49:37;;;;;;;;;;;12.80;99.90;;;;;;5114310;27;19931;-82
2023/06/17 01:52:04;;;;;;;;;;;12.80;99.90;;;;;;5101868;27;21647;-82
2023/06/17 01:54:30;;;;;;;;;;;12.80;99.90;;;;;;5097679;27;19934;-82
2023/06/17 01:56:55;;;;;;;;;;;12.80;99.90;;;;;;5119236;27;20581;-82
2023/06/17 01:59:21;;;;;;;;;;;12.70;99.90;;;;;;5102838;27;20473;-82
2023/06/17 02:01:46;;;;;;;;;;;12.70;99.90;;;;;;5117525;27;19934;-82
2023/06/17 02:04:12;;;;;;;;;;;12.70;99.90;;;;;;5120705;27;19971;-82
2023/06/17 02:06:38;;;;;;;;;;;12.80;99.90;;;;;;5121339;27;20005;-82
2023/06/17 02:09:04;;;;;;;;;;;12.80;99.90;;;;;;5115592;27;19928;-82
2023/06/17 02:11:30;;;;;;;;;;;12.80;99.90;;;;;;5102197;27;19985;-83
2023/06/17 02:13:55;;;;;;;;;;;12.90;99.90;;;;;;5097440;27;19947;-82
2023/06/17 02:16:21;;;;;;;;;;;12.90;99.90;;;;;;5118365;27;19927;-82
2023/06/17 02:18:48;;;;;;;;;;;13.00;99.90;;;;;;5102458;27;19931;-82
2023/06/17 02:21:13;;;;;;;;;;;13.10;99.90;;;;;;5116087;27;19938;-82
2023/06/17 02:23:39;;;;;;;;;;;13.20;99.90;;;;;;5112357;27;19928;-82
2023/06/17 02:26:05;;;;;;;;;;;13.40;99.90;;;;;;5101526;27;19928;-83
2023/06/17 02:28:31;;;;;;;;;;;13.50;99.90;;;;;;5109941;27;19935;-82
2023/06/17 02:30:56;;;;;;;;;;;13.60;99.90;;;;;;5096064;27;20289;-83
2023/06/17 02:33:22;;;;;;;;;;;13.80;99.90;;;;;;5098242;27;19950;-82
2023/06/17 02:35:48;;;;;;;;;;;13.80;99.90;;;;;;5102348;27;19939;-83
2023/06/17 02:38:14;;;;;;;;;;;13.90;99.90;;;;;;5096844;27;20304;-82
2023/06/17 02:40:40;;;;;;;;;;;14.00;99.90;;;;;;5101287;27;20795;-82
2023/06/17 02:43:06;;;;;;;;;;;14.10;99.90;;;;;;5082826;27;19923;-83
2023/06/17 02:45:31;;;;;;;;;;;14.10;99.90;;;;;;5097001;27;19973;-83
2023/06/17 02:47:57;;;;;;;;;;;14.20;99.90;;;;;;5115239;27;19963;-83
2023/06/17 02:50:23;;;;;;;;;;;14.20;99.90;;;;;;5097997;27;20397;-83
2023/06/17 02:52:55;;;;;;;;;;;14.20;99.90;;;;;;5099338;27;19939;-82
2023/06/17 02:55:21;;;;;;;;;;;14.30;99.90;;;;;;5081286;27;20785;-83
2023/06/17 02:57:47;;;;;;;;;;;14.40;99.90;;;;;;5095330;27;20442;-82
2023/06/17 03:00:13;;;;;;;;;;;14.30;99.90;;;;;;5101578;27;19927;-83
2023/06/17 03:02:38;;;;;;;;;;;14.40;99.90;;;;;;5099679;27;20019;-83
2023/06/17 03:05:06;;;;;;;;;;;14.40;99.90;;;;;;5117836;27;20006;-82
2023/06/17 03:07:35;;;;;;;;;;;14.40;99.90;;;;;;5092090;27;20269;-83
2023/06/17 03:10:02;;;;;;;;;;;14.40;99.90;;;;;;5098978;27;19966;-83
2023/06/17 03:12:28;;;;;;;;;;;14.40;99.90;;;;;;5118219;27;20122;-83
2023/06/17 03:14:53;;;;;;;;;;;14.50;99.90;;;;;;5102115;27;19930;-83
2023/06/17 03:17:19;;;;;;;;;;;14.60;99.90;;;;;;5098387;27;20354;-83
2023/06/17 03:19:46;;;;;;;;;;;14.60;99.90;;;;;;5118852;27;20388;-82
2023/06/17 03:22:11;;;;;;;;;;;14.60;99.90;;;;;;5095447;27;19947;-82
2023/06/17 03:24:37;;;;;;;;;;;14.60;99.90;;;;;;5102918;27;20459;-82
2023/06/17 03:27:02;;;;;;;;;;;14.60;99.90;;;;;;5108997;27;20059;-83
2023/06/17 03:29:28;;;;;;;;;;;14.60;99.90;;;;;;5111973;27;19927;-82
2023/06/17 03:31:56;;;;;;;;;;;14.60;99.90;;;;;;5113647;27;20308;-83
2023/06/17 03:34:22;;;;;;;;;;;14.60;99.90;;;;;;5084148;27;19927;-82
2023/06/17 03:36:49;;;;;;;;;;;14.60;99.90;;;;;;5095346;27;19986;-83
2023/06/17 03:39:14;;;;;;;;;;;14.60;99.90;;;;;;5101008;27;20339;-83
2023/06/17 03:41:40;;;;;;;;;;;14.70;99.90;;;;;;5113474;27;19927;-82
2023/06/17 03:44:06;;;;;;;;;;;14.60;99.90;;;;;;5097564;27;19935;-83
2023/06/17 03:46:31;;;;;;;;;;;14.70;99.90;;;;;;5111202;27;19935;-83
2023/06/17 03:48:57;;;;;;;;;;;14.60;99.90;;;;;;5096898;27;19923;-83
2023/06/17 03:51:23;;;;;;;;;;;14.60;99.90;;;;;;5107570;27;19970;-83
2023/06/17 03:53:48;;;;;;;;;;;14.60;99.90;;;;;;5098439;27;19932;-84
2023/06/17 03:56:14;;;;;;;;;;;14.60;99.90;;;;;;5096701;27;21947;-83
2023/06/17 03:58:40;;;;;;;;;;;14.60;99.90;;;;;;5098004;27;20855;-83
2023/06/17 04:01:12;;;;;;;;;;;14.60;99.90;;;;;;5096086;27;20281;-83
2023/06/17 04:03:38;;;;;;;;;;;14.60;99.90;;;;;;5097770;27;20179;-84
2023/06/17 04:06:04;;;;;;;;;;;14.60;99.90;;;;;;5098220;27;20004;-83
2023/06/17 04:08:32;;;;;;;;;;;14.50;99.90;;;;;;5098482;27;19953;-83
2023/06/17 04:10:58;;;;;;;;;;;14.60;99.90;;;;;;5112848;27;20638;-83
2023/06/17 04:13:24;;;;;;;;;;;14.70;99.90;;;;;;5092470;27;19924;-83
2023/06/17 04:15:50;;;;;;;;;;;14.70;99.90;;;;;;5096061;28;19986;-84
2023/06/17 04:18:15;;;;;;;;;;;14.60;99.90;;;;;;5101596;27;20458;-83
2023/06/17 04:20:41;;;;;;;;;;;14.60;99.90;;;;;;5097029;28;19928;-84
2023/06/17 04:23:06;;;;;;;;;;;14.60;99.90;;;;;;5115699;27;19935;-83
2023/06/17 04:25:36;;;;;;;;;;;14.70;99.90;;;;;;5076577;28;19931;-82
2023/06/17 04:28:06;;;;;;;;;;;14.70;99.90;;;;;;5100031;27;19930;-84
2023/06/17 04:30:32;;;;;;;;;;;14.70;99.90;;;;;;5094539;28;20012;-83
2023/06/17 04:32:59;;;;;;;;;;;14.80;99.90;;;;;;5086904;28;20320;-84
2023/06/17 04:35:28;;;;;;;;;;;14.80;99.90;;;;;;5084270;28;19927;-84
2023/06/17 04:37:54;;;;;;;;;;;14.80;99.90;;;;;;5093354;28;19924;-83
2023/06/17 04:40:20;;;;;;;;;;;14.90;99.90;;;;;;5094226;28;20632;-84
2023/06/17 04:42:47;;;;;;;;;;;14.90;99.90;;;;;;5112857;28;19927;-84
2023/06/17 04:45:13;;;;;;;;;;;15.00;99.90;;;;;;5102310;27;19923;-84
2023/06/17 04:47:39;;;;;;;;;;;15.00;99.90;;;;;;5097990;27;19939;-83
2023/06/17 04:50:05;;;;;;;;;;;15.00;99.90;;;;;;5085513;27;19923;-84
2023/06/17 04:52:31;;;;;;;;;;;15.00;99.90;;;;;;5098614;27;20352;-84
2023/06/17 04:54:57;;;;;;;;;;;15.00;99.90;;;;;;5100910;27;20027;-83
2023/06/17 04:57:22;;;;;;;;;;;15.00;99.90;;;;;;5097595;27;19976;-83
2023/06/17 04:59:48;;;;;;;;;;;15.00;99.90;;;;;;5121522;27;20319;-83
2023/06/17 05:02:14;;;;;;;;;;;14.90;99.90;;;;;;5095284;27;19923;-83
2023/06/17 05:04:39;;;;;;;;;;;14.90;99.90;;;;;;5115283;27;19936;-83
2023/06/17 05:07:05;;;;;;;;;;;15.00;99.90;;;;;;5119334;27;20014;-83
2023/06/17 05:09:31;;;;;;;;;;;15.00;99.90;;;;;;5101020;27;20438;-83
2023/06/17 05:11:56;;;;;;;;;;;15.00;99.90;;;;;;5124159;27;19966;-84
2023/06/17 05:14:22;;;;;;;;;;;15.10;99.90;;;;;;5102136;27;19932;-83
2023/06/17 05:16:48;;;;;;;;;;;15.10;99.90;;;;;;5099077;27;19932;-84
2023/06/17 05:19:13;;;;;;;;;;;15.10;99.90;;;;;;5097931;27;19931;-83
2023/06/17 05:21:39;;;;;;;;;;;15.20;99.90;;;;;;5101121;27;19984;-83
2023/06/17 05:24:05;;;;;;;;;;;15.20;99.90;;;;;;5097420;27;19932;-83
2023/06/17 05:26:30;;;;;;;;;;;15.30;99.90;;;;;;5096916;27;20017;-83
2023/06/17 05:28:57;;;;;;;;;;;15.20;99.90;;;;;;5123730;27;20296;-83
2023/06/17 05:31:22;;;;;;;;;;;15.30;99.90;;;;;;5102209;27;19927;-83
2023/06/17 05:33:48;;;;;;;;;;;15.30;99.90;;;;;;5088944;28;19938;-83
2023/06/17 05:36:14;;;;;;;;;;;15.30;99.90;;;;;;5100375;27;19924;-83
2023/06/17 05:38:39;;;;;;;;;;;15.40;99.90;;;;;;5085282;28;20471;-82
2023/06/17 05:41:05;;;;;;;;;;;15.40;99.90;;;;;;5104910;28;19992;-84
2023/06/17 05:43:31;;;;;;;;;;;15.40;99.90;;;;;;5090204;28;20305;-83
2023/06/17 05:45:56;;;;;;;;;;;15.40;99.90;;;;;;5090154;27;19971;-84
2023/06/17 05:48:22;;;;;;;;;;;15.40;99.90;;;;;;5088445;28;19992;-84
2023/06/17 05:50:47;;;;;;;;;;;15.50;99.90;;;;;;5088568;28;19947;-84
2023/06/17 05:53:13;;;;;;;;;;;15.60;99.90;;;;;;5087694;27;19939;-84
2023/06/17 05:55:38;;;;;;;;;;;15.70;99.90;;;;;;5084005;27;20428;-83
2023/06/17 05:58:04;;;;;;;;;;;15.80;99.90;;;;;;5084964;28;19928;-83
2023/06/17 06:00:29;;;;;;;;;;;15.80;99.90;;;;;;5084413;27;20431;-83
2023/06/17 06:02:55;;;;;;;;;;;15.80;99.90;;;;;;5083074;27;19935;-84
2023/06/17 06:05:21;;;;;;;;;;;15.90;99.90;;;;;;5086078;28;20034;-83
2023/06/17 06:07:46;;;;;;;;;;;16.00;99.90;;;;;;5107768;27;20293;-83
2023/06/17 06:10:12;;;;;;;;;;;16.00;99.90;;;;;;5109905;27;19924;-83
2023/06/17 06:12:38;;;;;;;;;;;16.00;99.90;;;;;;5087869;28;19931;-83
2023/06/17 06:15:04;;;;;;;;;;;16.00;99.90;;;;;;5087744;28;19938;-83
2023/06/17 06:17:30;;;;;;;;;;;16.00;99.90;;;;;;5088262;28;19924;-83
2023/06/17 06:19:56;;;;;;;;;;;16.10;99.90;;;;;;5104915;28;20365;-83
2023/06/17 06:22:21;;;;;;;;;;;16.10;99.90;;;;;;5090685;27;19931;-83
2023/06/17 06:24:47;;;;;;;;;;;16.20;99.90;;;;;;5090325;27;19935;-84
2023/06/17 06:27:13;;;;;;;;;;;16.30;99.90;;;;;;5088386;28;19972;-83
2023/06/17 06:29:38;;;;;;;;;;;16.30;99.90;;;;;;5091171;28;19934;-84
2023/06/17 06:32:04;;;;;;;;;;;16.40;99.90;;;;;;5088513;28;19932;-84
2023/06/17 06:34:30;;;;;;;;;;;16.50;99.90;;;;;;5086133;28;19924;-84
2023/06/17 06:36:58;;;;;;;;;;;16.60;99.90;;;;;;5089012;28;19932;-83
2023/06/17 06:39:23;;;;;;;;;;;16.60;99.90;;;;;;5106031;28;20388;-84
2023/06/17 06:41:49;;;;;;;;;;;16.70;99.90;;;;;;5088409;28;19928;-84
2023/06/17 06:44:15;;;;;;;;;;;16.70;99.90;;;;;;5087084;28;20384;-84
2023/06/17 06:46:41;;;;;;;;;;;16.80;99.90;;;;;;5087789;28;19943;-84
2023/06/17 06:49:06;;;;;;;;;;;16.80;99.90;;;;;;5105646;28;19929;-83
2023/06/17 06:51:32;;;;;;;;;;;17.10;99.90;;;;;;5105752;28;19932;-83
2023/06/17 06:53:58;;;;;;;;;;;17.20;99.90;;;;;;5072491;28;20014;-84
2023/06/17 06:56:24;;;;;;;;;;;17.20;99.90;;;;;;5104825;28;19931;-83
2023/06/17 06:58:49;;;;;;;;;;;17.30;99.90;;;;;;5072428;28;19928;-83
2023/06/17 07:01:15;;;;;;;;;;;17.40;99.90;;;;;;5084508;28;19931;-84
2023/06/17 07:03:41;;;;;;;;;;;17.40;99.90;;;;;;5086296;28;19927;-83
2023/06/17 07:06:07;;;;;;;;;;;17.50;99.90;;;;;;5088332;28;19942;-83
2023/06/17 07:08:33;;;;;;;;;;;17.50;99.90;;;;;;5085195;28;20312;-83
2023/06/17 07:10:58;;;;;;;;;;;17.50;99.90;;;;;;5088348;28;19966;-82
2023/06/17 07:13:24;;;;;;;;;;;17.60;99.90;;;;;;5088700;28;19923;-83
2023/06/17 07:15:52;;;;;;;;;;;17.80;99.90;;;;;;5086981;28;19931;-83
2023/06/17 07:18:18;;;;;;;;;;;17.90;99.90;;;;;;5088676;28;19928;-83
2023/06/17 07:20:43;;;;;;;;;;;18.30;99.90;;;;;;5088181;28;19935;-83
2023/06/17 07:23:09;;;;;;;;;;;18.40;99.90;;;;;;5089066;28;20019;-83
2023/06/17 07:25:36;;;;;;;;;;;18.30;99.90;;;;;;5085850;28;19931;-82
2023/06/17 07:28:02;;;;;;;;;;;18.20;99.90;;;;;;5087818;28;19971;-83
2023/06/17 07:30:34;;;;;;;;;;;18.70;99.90;;;;;;5087723;28;20183;-82
2023/06/17 07:33:00;;;;;;;;;;;19.40;99.90;;;;;;5087533;28;20005;-85
2023/06/17 07:35:26;;;;;;;;;;;20.00;99.90;;;;;;5106767;28;19928;-83
2023/06/17 07:37:52;;;;;;;;;;;19.50;99.90;;;;;;5108679;27;19939;-83
2023/06/17 07:40:17;;;;;;;;;;;19.40;99.90;;;;;;5088227;28;19928;-83
2023/06/17 07:42:43;;;;;;;;;;;19.60;99.90;;;;;;5088325;27;19935;-84
2023/06/17 07:45:09;;;;;;;;;;;20.00;99.90;;;;;;5087688;28;19950;-83
2023/06/17 07:47:35;;;;;;;;;;;20.10;99.90;;;;;;5089724;27;19928;-83
2023/06/17 07:50:01;;;;;;;;;;;21.00;99.90;;;;;;5111246;27;19927;-84
2023/06/17 07:52:27;;;;;;;;;;;20.90;99.90;;;;;;5106791;27;19997;-84
2023/06/17 07:54:53;;;;;;;;;;;21.30;99.90;;;;;;5101754;28;19942;-84
2023/06/17 07:57:18;;;;;;;;;;;21.40;99.90;;;;;;5102053;27;19971;-84
2023/06/17 07:59:44;;;;;;;;;;;21.50;99.90;;;;;;5108375;27;19927;-83
2023/06/17 08:02:10;;;;;;;;;;;21.70;99.90;;;;;;5106735;27;19939;-83
2023/06/17 08:04:36;;;;;;;;;;;21.80;99.90;;;;;;5103478;27;19932;-83
2023/06/17 08:07:01;;;;;;;;;;;21.80;99.90;;;;;;5082314;28;19928;-83
2023/06/17 08:09:27;;;;;;;;;;;22.30;99.90;;;;;;5081965;28;19947;-83
2023/06/17 08:11:53;;;;;;;;;;;22.20;99.90;;;;;;5084824;28;19927;-84
2023/06/17 08:14:18;;;;;;;;;;;22.30;99.90;;;;;;5087705;28;21644;-83
2023/06/17 08:16:44;;;;;;;;;;;22.00;99.90;;;;;;5104161;28;20062;-84
2023/06/17 08:19:10;;;;;;;;;;;22.20;99.90;;;;;;5070003;28;19928;-83
2023/06/17 08:21:37;;;;;;;;;;;22.50;99.90;;;;;;5104810;28;20462;-84
2023/06/17 08:24:18;;;;;;;;;;;22.60;99.90;;;;;;5087065;28;19959;-83
2023/06/17 08:26:44;;;;;;;;;;;22.70;99.90;;;;;;5087127;28;20424;-84
2023/06/17 08:29:11;;;;;;;;;;;22.70;99.90;;;;;;5086777;28;20529;-84
2023/06/17 08:31:37;;;;;;;;;;;22.80;99.90;;;;;;5069674;28;20446;-84
2023/06/17 08:34:02;;;;;;;;;;;23.00;99.90;;;;;;5109681;28;19928;-83
2023/06/17 08:36:28;;;;;;;;;;;23.20;99.90;;;;;;5089367;28;20453;-82
2023/06/17 08:38:53;;;;;;;;;;;23.50;99.90;;;;;;5087076;28;20368;-84
2023/06/17 08:41:19;;;;;;;;;;;23.00;99.90;;;;;;5086339;28;19931;-84
2023/06/17 08:43:49;;;;;;;;;;;22.70;99.90;;;;;;5085958;28;20485;-85
2023/06/17 08:46:14;;;;;;;;;;;22.80;99.90;;;;;;5084673;28;19927;-85
2023/06/17 08:48:42;;;;;;;;;;;23.30;99.90;;;;;;5102032;28;19935;-85
2023/06/17 08:51:07;;;;;;;;;;;23.60;99.90;;;;;;5104635;28;19939;-84
2023/06/17 08:53:34;;;;;;;;;;;23.80;99.90;;;;;;5090031;28;19924;-84
2023/06/17 08:56:00;;;;;;;;;;;23.70;99.90;;;;;;5084720;28;19985;-84
2023/06/17 08:58:26;;;;;;;;;;;24.20;99.90;;;;;;5084262;28;19923;-85
2023/06/17 09:00:52;;;;;;;;;;;24.30;99.90;;;;;;5102521;28;19934;-84
2023/06/17 09:03:19;;;;;;;;;;;24.60;99.90;;;;;;5087166;28;19963;-84
2023/06/17 09:05:44;;;;;;;;;;;24.70;99.90;;;;;;5068403;28;19931;-84
2023/06/17 09:08:10;;;;;;;;;;;24.60;99.90;;;;;;5086913;28;20395;-84
2023/06/17 09:10:43;;;;;;;;;;;24.50;99.90;;;;;;5085759;28;20436;-84
2023/06/17 09:13:09;;;;;;;;;;;24.50;99.90;;;;;;5089629;28;19935;-84
2023/06/17 09:15:38;;;;;;;;;;;24.90;99.90;;;;;;5084816;28;19932;-85
2023/06/17 09:18:03;;;;;;;;;;;24.60;99.90;;;;;;5084572;28;20423;-86
2023/06/17 09:20:31;;;;;;;;;;;24.80;99.90;;;;;;5084854;28;19928;-85
2023/06/17 09:22:57;;;;;;;;;;;24.60;99.90;;;;;;5084746;28;19975;-85
2023/06/17 09:25:22;;;;;;;;;;;24.20;99.90;;;;;;5084538;28;19981;-85
2023/06/17 09:27:54;;;;;;;;;;;24.00;99.90;;;;;;5086189;28;19932;-86
2023/06/17 09:30:22;;;;;;;;;;;24.10;99.90;;;;;;5107726;28;19928;-85
2023/06/17 09:32:50;;;;;;;;;;;23.80;99.90;;;;;;5087148;28;20416;-88
2023/06/17 09:35:16;;;;;;;;;;;24.60;99.90;;;;;;5089450;27;20385;-84
2023/06/17 09:37:52;;;;;;;;;;;23.40;99.90;;;;;;5088558;28;19932;-85
2023/06/17 09:40:27;;;;;;;;;;;23.70;99.90;;;;;;5071394;28;19927;-84
2023/06/17 09:42:52;;;;;;;;;;;24.50;99.90;;;;;;5106488;27;20511;-85
2023/06/17 09:45:24;;;;;;;;;;;24.40;99.90;;;;;;5089263;28;19931;-85
2023/06/17 09:47:50;;;;;;;;;;;24.10;99.90;;;;;;5091859;28;21357;-84
2023/06/17 09:50:17;;;;;;;;;;;24.40;99.90;;;;;;5090432;28;20415;-85
2023/06/17 09:52:43;;;;;;;;;;;24.60;99.90;;;;;;5092035;28;19978;-85
2023/06/17 09:55:09;;;;;;;;;;;24.30;99.90;;;;;;5090250;27;19928;-84
2023/06/17 09:57:35;;;;;;;;;;;25.20;99.90;;;;;;5085217;28;19962;-86
2023/06/17 10:00:09;;;;;;;;;;;24.20;99.90;;;;;;5089273;28;20369;-86
2023/06/17 10:02:36;;;;;;;;;;;25.20;99.90;;;;;;5084921;28;19927;-84
2023/06/17 10:05:01;;;;;;;;;;;25.70;99.90;;;;;;5084432;28;19932;-85
2023/06/17 10:07:27;;;;;;;;;;;26.30;99.90;;;;;;5086914;28;21393;-86
2023/06/17 10:09:53;;;;;;;;;;;26.10;99.90;;;;;;5090043;28;19950;-85
2023/06/17 10:12:21;;;;;;;;;;;26.00;99.90;;;;;;5112164;27;20016;-85
2023/06/17 10:14:47;;;;;;;;;;;25.60;99.90;;;;;;5070173;27;20309;-85
2023/06/17 10:17:13;;;;;;;;;;;25.50;99.90;;;;;;5088522;28;19989;-85
2023/06/17 10:19:41;;;;;;;;;;;26.30;99.90;;;;;;5086245;28;20503;-85
2023/06/17 10:22:09;;;;;;;;;;;26.30;99.90;;;;;;5081556;28;19973;-86
2023/06/17 10:24:53;;;;;;;;;;;26.70;99.90;;;;;;5084525;28;19938;-86
2023/06/17 10:27:22;;;;;;;;;;;26.90;99.90;;;;;;5084814;28;20638;-85
2023/06/17 10:29:48;;;;;;;;;;;26.90;99.90;;;;;;5082658;28;19924;-86
2023/06/17 10:32:24;;;;;;;;;;;26.60;99.90;;;;;;5084937;28;19939;-85
2023/06/17 10:35:05;;;;;;;;;;;27.00;99.90;;;;;;5101147;28;20475;-85
2023/06/17 10:37:30;;;;;;;;;;;26.50;99.90;;;;;;5086243;28;20020;-85
2023/06/17 10:40:20;;;;;;;;;;;27.00;99.90;;;;;;5086136;28;19977;-84
2023/06/17 10:42:55;;;;;;;;;;;27.40;99.90;;;;;;5085397;28;19935;-84
2023/06/17 10:45:21;;;;;;;;;;;28.00;99.90;;;;;;5088791;27;19932;-85
2023/06/17 10:47:47;;;;;;;;;;;28.30;99.90;;;;;;5087120;28;19972;-86
2023/06/17 10:50:12;;;;;;;;;;;28.20;99.90;;;;;;5086318;28;20679;-87
2023/06/17 10:52:44;;;;;;;;;;;27.80;99.90;;;;;;5086298;28;20711;-86
2023/06/17 10:55:16;;;;;;;;;;;27.70;99.90;;;;;;5068644;27;19934;-86
2023/06/17 10:57:41;;;;;;;;;;;27.50;99.90;;;;;;5086487;28;19931;-85
2023/06/17 11:00:08;;;;;;;;;;;27.60;99.90;;;;;;5071426;28;19934;-87
2023/06/17 11:02:40;;;;;;;;;;;26.50;99.90;;;;;;5086013;28;19930;-87
2023/06/17 11:05:06;;;;;;;;;;;26.70;99.90;;;;;;5086863;28;20387;-86
2023/06/17 11:07:32;;;;;;;;;;;26.20;99.90;;;;;;5084714;27;19931;-85
2023/06/17 11:09:58;;;;;;;;;;;27.60;99.90;;;;;;5090889;27;19934;-87
2023/06/17 11:12:23;;;;;;;;;;;27.20;99.90;;;;;;5070789;28;20022;-84
2023/06/17 11:14:49;;;;;;;;;;;27.10;99.90;;;;;;5084408;28;20454;-85
2023/06/17 11:17:14;;;;;;;;;;;28.00;99.90;;;;;;5088213;27;20381;-86
2023/06/17 11:19:40;;;;;;;;;;;28.20;99.90;;;;;;5068464;28;19931;-85
2023/06/17 11:22:07;;;;;;;;;;;28.30;99.90;;;;;;5082410;28;19924;-86
2023/06/17 11:24:35;;;;;;;;;;;28.80;99.90;;;;;;5084466;27;19932;-85
2023/06/17 11:27:02;;;;;;;;;;;28.60;99.90;;;;;;5071994;28;19985;-86
2023/06/17 11:29:28;;;;;;;;;;;29.20;99.90;;;;;;5056323;27;19939;-90
2023/06/17 11:31:54;;;;;;;;;;;28.40;99.90;;;;;;5079052;28;19934;-85
2023/06/17 11:34:22;;;;;;;;;;;28.90;99.50;;;;;;5071733;28;20303;-83
2023/06/17 11:36:52;;;;;;;;;;;29.40;99.60;;;;;;5085456;27;19930;-85
2023/06/17 11:39:26;;;;;;;;;;;29.60;99.30;;;;;;5105719;27;19927;-86
2023/06/17 11:41:52;;;;;;;;;;;29.10;96.90;;;;;;5084156;28;19928;-86
2023/06/17 11:44:19;;;;;;;;;;;29.10;96.40;;;;;;5086186;28;20415;-87
2023/06/17 11:46:48;;;;;;;;;;;29.30;97.60;;;;;;5086113;28;19924;-83
2023/06/17 11:49:14;;;;;;;;;;;29.40;97.90;;;;;;5071307;28;19935;-84
2023/06/17 11:51:46;;;;;;;;;;;29.90;97.30;;;;;;5086775;28;19927;-86
2023/06/17 11:54:12;;;;;;;;;;;29.90;97.00;;;;;;5066868;28;20471;-85
2023/06/17 11:56:37;;;;;;;;;;;30.20;96.20;;;;;;5085175;27;19932;-85
2023/06/17 11:59:03;;;;;;;;;;;30.10;95.50;;;;;;5109379;27;20051;-85
2023/06/17 12:01:28;;;;;;;;;;;29.90;93.80;;;;;;5084717;28;19935;-84
2023/06/17 12:03:55;;;;;;;;;;;30.10;94.00;;;;;;5088413;27;20070;-87
2023/06/17 12:06:21;;;;;;;;;;;29.90;95.10;;;;;;5086395;27;19932;-86
2023/06/17 12:08:57;;;;;;;;;;;30.20;96.00;;;;;;5084454;28;19934;-85
2023/06/17 12:11:27;;;;;;;;;;;30.60;94.60;;;;;;5083004;28;19931;-85
2023/06/17 12:13:54;;;;;;;;;;;30.60;94.80;;;;;;5105706;27;19934;-86
2023/06/17 12:16:40;;;;;;;;;;;30.70;94.00;;;;;;5084274;28;19957;-85
2023/06/17 12:19:36;;;;;;;;;;;30.40;93.60;;;;;;5103396;28;20631;-86
2023/06/17 12:22:01;;;;;;;;;;;30.80;94.60;;;;;;5066511;28;19935;-89
2023/06/17 12:24:27;;;;;;;;;;;30.70;93.10;;;;;;5083308;28;19927;-87
2023/06/17 12:26:53;;;;;;;;;;;30.50;93.90;;;;;;5084917;27;20385;-85
2023/06/17 12:29:18;;;;;;;;;;;30.70;94.00;;;;;;5088673;28;20304;-86
2023/06/17 12:31:44;;;;;;;;;;;30.30;93.80;;;;;;5085715;28;20019;-85
2023/06/17 12:34:25;;;;;;;;;;;30.70;94.30;;;;;;5086926;28;20039;-84
2023/06/17 12:36:51;;;;;;;;;;;31.10;93.30;;;;;;5088687;28;19980;-87
2023/06/17 12:39:16;;;;;;;;;;;31.10;93.40;;;;;;5084347;28;20304;-86
2023/06/17 12:41:43;;;;;;;;;;;30.70;92.70;;;;;;5083452;28;19950;-86
2023/06/17 12:44:08;;;;;;;;;;;31.00;93.90;;;;;;5084575;28;19932;-84
2023/06/17 12:46:35;;;;;;;;;;;31.40;93.60;;;;;;5086436;28;19932;-86
2023/06/17 12:49:00;;;;;;;;;;;31.30;92.50;;;;;;5068319;28;20019;-87
2023/06/17 12:51:26;;;;;;;;;;;31.20;92.00;;;;;;5086629;28;20014;-85
2023/06/17 12:53:51;;;;;;;;;;;31.00;92.60;;;;;;5085776;28;19953;-85
2023/06/17 12:56:17;;;;;;;;;;;31.20;91.20;;;;;;5084581;28;20418;-86
2023/06/17 12:58:43;;;;;;;;;;;30.90;93.00;;;;;;5085070;28;20025;-85
2023/06/17 13:01:08;;;;;;;;;;;30.90;93.20;;;;;;5083146;28;19975;-84
2023/06/17 13:03:36;;;;;;;;;;;31.10;91.30;;;;;;5086274;28;19935;-87
2023/06/17 13:06:02;;;;;;;;;;;30.90;91.20;;;;;;5090397;27;19928;-89
2023/06/17 13:08:27;;;;;;;;;;;30.80;92.00;;;;;;5089363;28;19943;-86
2023/06/17 13:10:53;;;;;;;;;;;30.90;92.10;;;;;;5087364;28;19924;-85
2023/06/17 13:13:18;;;;;;;;;;;30.60;91.80;;;;;;5089294;28;20031;-86
2023/06/17 13:15:44;;;;;;;;;;;30.80;91.00;;;;;;5086192;27;20025;-90
2023/06/17 13:18:09;;;;;;;;;;;30.40;89.00;;;;;;5089620;28;19934;-86
2023/06/17 13:20:35;;;;;;;;;;;30.90;91.60;;;;;;5089961;28;19930;-85
2023/06/17 13:23:01;;;;;;;;;;;30.50;90.40;;;;;;5085175;28;19928;-87
2023/06/17 13:25:26;;;;;;;;;;;30.50;91.60;;;;;;5087110;27;19935;-85
2023/06/17 13:27:52;;;;;;;;;;;30.40;91.20;;;;;;5089447;28;20424;-85
2023/06/17 13:30:18;;;;;;;;;;;30.60;91.50;;;;;;5086633;28;19928;-85
2023/06/17 13:32:44;;;;;;;;;;;30.10;87.20;;;;;;5088573;28;20396;-86
2023/06/17 13:35:09;;;;;;;;;;;29.90;88.80;;;;;;5070020;28;19953;-85
2023/06/17 13:37:35;;;;;;;;;;;29.90;89.60;;;;;;5087215;28;19931;-86
2023/06/17 13:40:01;;;;;;;;;;;30.10;90.10;;;;;;5088074;27;20379;-87
2023/06/17 13:42:26;;;;;;;;;;;30.60;89.40;;;;;;5088750;28;19931;-86
2023/06/17 13:44:52;;;;;;;;;;;30.60;90.20;;;;;;5085981;28;19927;-86
2023/06/17 13:47:17;;;;;;;;;;;29.80;90.10;;;;;;5082840;28;20292;-84
2023/06/17 13:49:43;;;;;;;;;;;30.10;90.20;;;;;;5084443;28;20373;-84
2023/06/17 13:52:09;;;;;;;;;;;30.90;90.90;;;;;;5083722;28;19928;-84
2023/06/17 13:54:35;;;;;;;;;;;31.10;88.30;;;;;;5085570;28;19957;-85
2023/06/17 13:57:00;;;;;;;;;;;30.70;87.20;;;;;;5085447;28;20497;-85
2023/06/17 13:59:26;;;;;;;;;;;31.20;89.00;;;;;;5085349;28;19981;-86
2023/06/17 14:01:51;;;;;;;;;;;30.80;89.40;;;;;;5085927;27;19924;-88
2023/06/17 14:04:17;;;;;;;;;;;30.50;85.90;;;;;;5071756;28;20292;-88
2023/06/17 14:06:45;;;;;;;;;;;30.50;85.70;;;;;;5090634;27;19959;-82
2023/06/17 14:09:12;;;;;;;;;;;31.00;90.40;;;;;;5092048;28;19931;-85
2023/06/17 14:11:37;;;;;;;;;;;31.20;90.20;;;;;;5087119;27;19928;-87
2023/06/17 14:14:04;;;;;;;;;;;31.00;86.70;;;;;;5083339;28;19931;-87